SBI116 UACC-UNNT
Flight info
| Callsign | SBI116 |
|---|---|
| Flight time | 1h 24m |
| Altitude | 36000 |
| Route | OLGAS2B OLGAS M75 ULSET/K0883F340 M75 POBUR/K0889F350 M75 DAKIN B944 GOLIM GOLIM1P |
| Aircraft | B738/M-SDE3/L |
Departure
| Time | 2026-04-20 12:44 |
|---|---|
| Airport | Nursultan Nazarbayev International Airport (UACC) |
Arrival
| Time | 2026-04-20 14:08 |
|---|---|
| Airport | Novosibirsk Tolmachevo Airport (UNNT) |
| Time | Latitude | Longitude | Altitude | Speed | Heading |
|---|---|---|---|---|---|
| 2026-04-20 11:51 | 51.02627 | 71.45994 | 1168 ft | 0 kts | 29° |
| 2026-04-20 12:33 | 51.02618 | 71.45986 | 1164 ft | 2 kts | 31° |
| 2026-04-20 12:33 | 51.02604 | 71.45973 | 1166 ft | 2 kts | 31° |
| 2026-04-20 12:34 | 51.02591 | 71.45959 | 1164 ft | 2 kts | 34° |
| 2026-04-20 12:34 | 51.02577 | 71.45943 | 1165 ft | 2 kts | 41° |
| 2026-04-20 12:34 | 51.02566 | 71.45924 | 1164 ft | 2 kts | 63° |
| 2026-04-20 12:34 | 51.02565 | 71.45900 | 1165 ft | 2 kts | 122° |
| 2026-04-20 12:35 | 51.02569 | 71.45891 | 1166 ft | 0 kts | 131° |
| 2026-04-20 12:35 | 51.02569 | 71.45890 | 1166 ft | 0 kts | 131° |
| 2026-04-20 12:37 | 51.02556 | 71.45911 | 1165 ft | 5 kts | 135° |
| 2026-04-20 12:37 | 51.02531 | 71.45950 | 1167 ft | 5 kts | 135° |
| 2026-04-20 12:37 | 51.02506 | 71.45990 | 1167 ft | 5 kts | 135° |
| 2026-04-20 12:37 | 51.02482 | 71.46028 | 1165 ft | 5 kts | 135° |
| 2026-04-20 12:38 | 51.02452 | 71.46077 | 1165 ft | 9 kts | 135° |
| 2026-04-20 12:38 | 51.02407 | 71.46149 | 1166 ft | 9 kts | 134° |
| 2026-04-20 12:38 | 51.02364 | 71.46220 | 1166 ft | 9 kts | 134° |
| 2026-04-20 12:38 | 51.02358 | 71.46307 | 1166 ft | 9 kts | 58° |
| 2026-04-20 12:39 | 51.02449 | 71.46458 | 1168 ft | 16 kts | 44° |
| 2026-04-20 12:39 | 51.02536 | 71.46594 | 1167 ft | 18 kts | 44° |
| 2026-04-20 12:39 | 51.02625 | 71.46733 | 1168 ft | 17 kts | 44° |
| 2026-04-20 12:40 | 51.02709 | 71.46864 | 1168 ft | 17 kts | 44° |
| 2026-04-20 12:40 | 51.02791 | 71.46992 | 1168 ft | 16 kts | 45° |
| 2026-04-20 12:40 | 51.02871 | 71.47116 | 1166 ft | 17 kts | 44° |
| 2026-04-20 12:40 | 51.02972 | 71.47274 | 1166 ft | 21 kts | 44° |
| 2026-04-20 12:41 | 51.03074 | 71.47434 | 1168 ft | 20 kts | 44° |
| 2026-04-20 12:41 | 51.03185 | 71.47606 | 1168 ft | 23 kts | 44° |
| 2026-04-20 12:41 | 51.03297 | 71.47781 | 1167 ft | 22 kts | 44° |
| 2026-04-20 12:41 | 51.03406 | 71.47952 | 1167 ft | 22 kts | 47° |
| 2026-04-20 12:42 | 51.03432 | 71.48175 | 1168 ft | 20 kts | 89° |
| 2026-04-20 12:42 | 51.03377 | 71.48337 | 1166 ft | 17 kts | 159° |
| 2026-04-20 12:42 | 51.03301 | 71.48253 | 1167 ft | 0 kts | 226° |
| 2026-04-20 12:43 | 51.03300 | 71.48251 | 1167 ft | 3 kts | 226° |
| 2026-04-20 12:43 | 51.03219 | 71.48123 | 1167 ft | 37 kts | 224° |
| 2026-04-20 12:43 | 51.02867 | 71.47573 | 1168 ft | 103 kts | 224° |
| 2026-04-20 12:44 | 51.02215 | 71.46560 | 1169 ft | 157 kts | 224° |
| 2026-04-20 12:44 | 51.01400 | 71.45243 | 1704 ft | 163 kts | 227° |
| 2026-04-20 12:44 | 51.00664 | 71.43902 | 2560 ft | 163 kts | 224° |
| 2026-04-20 12:44 | 50.99824 | 71.42618 | 3080 ft | 178 kts | 222° |
| 2026-04-20 12:45 | 50.98856 | 71.41157 | 3307 ft | 203 kts | 223° |
| 2026-04-20 12:45 | 50.97787 | 71.39524 | 3468 ft | 224 kts | 223° |
| 2026-04-20 12:45 | 50.96640 | 71.37754 | 3884 ft | 231 kts | 223° |
| 2026-04-20 12:45 | 50.95359 | 71.36217 | 4466 ft | 234 kts | 204° |
| 2026-04-20 12:46 | 50.93789 | 71.35504 | 5054 ft | 236 kts | 189° |
| 2026-04-20 12:46 | 50.92135 | 71.35433 | 5599 ft | 240 kts | 180° |
| 2026-04-20 12:46 | 50.90433 | 71.35410 | 6000 ft | 255 kts | 173° |
| 2026-04-20 12:46 | 50.88805 | 71.36667 | 6495 ft | 272 kts | 140° |
| 2026-04-20 12:47 | 50.87507 | 71.38902 | 7126 ft | 281 kts | 125° |
| 2026-04-20 12:47 | 50.86910 | 71.41865 | 7767 ft | 291 kts | 91° |
| 2026-04-20 12:47 | 50.87413 | 71.44958 | 8463 ft | 295 kts | 60° |
| 2026-04-20 12:47 | 50.88652 | 71.47560 | 9156 ft | 298 kts | 45° |
| 2026-04-20 12:48 | 50.90132 | 71.49890 | 9858 ft | 302 kts | 43° |
| 2026-04-20 12:48 | 50.91653 | 71.52201 | 10508 ft | 305 kts | 43° |
| 2026-04-20 12:48 | 50.93189 | 71.54536 | 11178 ft | 307 kts | 43° |
| 2026-04-20 12:48 | 50.94733 | 71.56909 | 11845 ft | 310 kts | 43° |
| 2026-04-20 12:49 | 50.96282 | 71.59313 | 12543 ft | 313 kts | 43° |
| 2026-04-20 12:49 | 50.97820 | 71.61717 | 13241 ft | 316 kts | 44° |
| 2026-04-20 12:49 | 50.99390 | 71.64185 | 13948 ft | 319 kts | 44° |
| 2026-04-20 12:49 | 51.00971 | 71.66678 | 14592 ft | 322 kts | 44° |
| 2026-04-20 12:50 | 51.02567 | 71.69200 | 15242 ft | 326 kts | 44° |
| 2026-04-20 12:50 | 51.04181 | 71.71753 | 15899 ft | 329 kts | 44° |
| 2026-04-20 12:50 | 51.05807 | 71.74329 | 16567 ft | 331 kts | 43° |
| 2026-04-20 12:50 | 51.07441 | 71.76922 | 17263 ft | 334 kts | 43° |
| 2026-04-20 12:51 | 51.09095 | 71.79547 | 17896 ft | 338 kts | 43° |
| 2026-04-20 12:51 | 51.10781 | 71.82216 | 18310 ft | 350 kts | 43° |
| 2026-04-20 12:51 | 51.12565 | 71.85022 | 18434 ft | 369 kts | 43° |
| 2026-04-20 12:51 | 51.14438 | 71.87969 | 18561 ft | 387 kts | 43° |
| 2026-04-20 12:52 | 51.16390 | 71.91048 | 18688 ft | 403 kts | 43° |
| 2026-04-20 12:52 | 51.18411 | 71.94230 | 19034 ft | 411 kts | 41° |
| 2026-04-20 12:52 | 51.20754 | 71.96803 | 19479 ft | 410 kts | 20° |
| 2026-04-20 12:52 | 51.23488 | 71.97934 | 20086 ft | 404 kts | 2° |
| 2026-04-20 12:53 | 51.26274 | 71.97775 | 20633 ft | 400 kts | 348° |
| 2026-04-20 12:53 | 51.29032 | 71.97052 | 21137 ft | 403 kts | 347° |
| 2026-04-20 12:53 | 51.31803 | 71.96264 | 21603 ft | 407 kts | 346° |
| 2026-04-20 12:53 | 51.34601 | 71.95459 | 22110 ft | 410 kts | 346° |
| 2026-04-20 12:54 | 51.37414 | 71.94660 | 22613 ft | 413 kts | 346° |
| 2026-04-20 12:54 | 51.40257 | 71.93867 | 23058 ft | 417 kts | 346° |
| 2026-04-20 12:54 | 51.43127 | 71.93079 | 23535 ft | 419 kts | 346° |
| 2026-04-20 12:54 | 51.46010 | 71.92296 | 23954 ft | 422 kts | 346° |
| 2026-04-20 12:55 | 51.48768 | 71.91551 | 24350 ft | 423 kts | 346° |
| 2026-04-20 12:55 | 51.51665 | 71.90772 | 24755 ft | 425 kts | 346° |
| 2026-04-20 12:55 | 51.54587 | 71.89989 | 25172 ft | 426 kts | 346° |
| 2026-04-20 12:55 | 51.57511 | 71.89210 | 25611 ft | 426 kts | 346° |
| 2026-04-20 12:56 | 51.60440 | 71.88437 | 26063 ft | 427 kts | 346° |
| 2026-04-20 12:56 | 51.63228 | 71.87708 | 26473 ft | 427 kts | 346° |
| 2026-04-20 12:56 | 51.66167 | 71.86947 | 26899 ft | 428 kts | 346° |
| 2026-04-20 12:56 | 51.69025 | 71.86211 | 27351 ft | 428 kts | 346° |
| 2026-04-20 12:57 | 51.71967 | 71.85457 | 27814 ft | 428 kts | 346° |
| 2026-04-20 12:57 | 51.73915 | 71.84959 | 28119 ft | 428 kts | 346° |
| 2026-04-20 12:57 | 51.77611 | 71.84017 | 28692 ft | 428 kts | 346° |
| 2026-04-20 12:57 | 51.80554 | 71.83269 | 29155 ft | 428 kts | 346° |
| 2026-04-20 12:58 | 51.83455 | 71.82533 | 29564 ft | 429 kts | 346° |
| 2026-04-20 12:58 | 51.86429 | 71.81778 | 29670 ft | 437 kts | 346° |
| 2026-04-20 12:58 | 51.89494 | 71.80997 | 29730 ft | 442 kts | 346° |
| 2026-04-20 12:59 | 51.95519 | 71.79461 | 29758 ft | 442 kts | 346° |
| 2026-04-20 12:59 | 52.01641 | 71.77896 | 29838 ft | 449 kts | 346° |
| 2026-04-20 13:00 | 52.07849 | 71.76299 | 30054 ft | 453 kts | 346° |
| 2026-04-20 13:00 | 52.10963 | 71.75505 | 30227 ft | 453 kts | 346° |
| 2026-04-20 13:00 | 52.14076 | 71.74724 | 30414 ft | 452 kts | 346° |
| 2026-04-20 13:00 | 52.17180 | 71.73956 | 30628 ft | 451 kts | 346° |
| 2026-04-20 13:01 | 52.20284 | 71.73198 | 30820 ft | 450 kts | 346° |
| 2026-04-20 13:01 | 52.23380 | 71.72448 | 30985 ft | 450 kts | 346° |
| 2026-04-20 13:01 | 52.26481 | 71.71726 | 31163 ft | 451 kts | 349° |
| 2026-04-20 13:01 | 52.29647 | 71.71683 | 31332 ft | 460 kts | 1° |
| 2026-04-20 13:02 | 52.32807 | 71.72692 | 31560 ft | 466 kts | 11° |
| 2026-04-20 13:02 | 52.35879 | 71.74492 | 31736 ft | 471 kts | 17° |
| 2026-04-20 13:02 | 52.38914 | 71.76532 | 31883 ft | 472 kts | 17° |
| 2026-04-20 13:02 | 52.41951 | 71.78565 | 32038 ft | 472 kts | 17° |
| 2026-04-20 13:03 | 52.44997 | 71.80574 | 32226 ft | 471 kts | 16° |
| 2026-04-20 13:03 | 52.48034 | 71.82554 | 32519 ft | 468 kts | 15° |
| 2026-04-20 13:03 | 52.51054 | 71.84507 | 32786 ft | 466 kts | 15° |
| 2026-04-20 13:03 | 52.54070 | 71.86451 | 32952 ft | 466 kts | 15° |
| 2026-04-20 13:04 | 52.57090 | 71.88398 | 33077 ft | 467 kts | 15° |
| 2026-04-20 13:04 | 52.60114 | 71.90355 | 33244 ft | 467 kts | 15° |
| 2026-04-20 13:04 | 52.63133 | 71.92316 | 33463 ft | 465 kts | 14° |
| 2026-04-20 13:04 | 52.66184 | 71.93964 | 33653 ft | 457 kts | 6° |
| 2026-04-20 13:05 | 52.69288 | 71.94957 | 33844 ft | 453 kts | 3° |
| 2026-04-20 13:05 | 52.72392 | 71.95829 | 34030 ft | 452 kts | 2° |
| 2026-04-20 13:05 | 52.75499 | 71.96686 | 34192 ft | 452 kts | 2° |
| 2026-04-20 13:05 | 52.78599 | 71.97560 | 34328 ft | 453 kts | 3° |
| 2026-04-20 13:06 | 52.81703 | 71.98460 | 34474 ft | 453 kts | 3° |
| 2026-04-20 13:06 | 52.84802 | 71.99379 | 34629 ft | 452 kts | 3° |
| 2026-04-20 13:06 | 52.87897 | 72.00309 | 34802 ft | 452 kts | 3° |
| 2026-04-20 13:06 | 52.90997 | 72.01244 | 34909 ft | 453 kts | 3° |
| 2026-04-20 13:07 | 52.94096 | 72.02180 | 35153 ft | 451 kts | 3° |
| 2026-04-20 13:07 | 52.97123 | 72.03096 | 35482 ft | 446 kts | 3° |
| 2026-04-20 13:07 | 52.99184 | 72.03719 | 35588 ft | 446 kts | 3° |
| 2026-04-20 13:08 | 53.06311 | 72.05866 | 35755 ft | 449 kts | 3° |
| 2026-04-20 13:08 | 53.09386 | 72.06797 | 35932 ft | 448 kts | 3° |
| 2026-04-20 13:08 | 53.12454 | 72.07727 | 36020 ft | 449 kts | 3° |
| 2026-04-20 13:09 | 53.18620 | 72.09595 | 36033 ft | 451 kts | 3° |
| 2026-04-20 13:09 | 53.23781 | 72.11166 | 36016 ft | 450 kts | 3° |
| 2026-04-20 13:10 | 53.29930 | 72.13042 | 36025 ft | 449 kts | 3° |
| 2026-04-20 13:10 | 53.36064 | 72.14917 | 36020 ft | 448 kts | 3° |
| 2026-04-20 13:11 | 53.42189 | 72.16794 | 36049 ft | 447 kts | 3° |
| 2026-04-20 13:11 | 53.48318 | 72.18674 | 36044 ft | 448 kts | 3° |
| 2026-04-20 13:12 | 53.54416 | 72.20553 | 36023 ft | 449 kts | 3° |
| 2026-04-20 13:12 | 53.60565 | 72.22454 | 36015 ft | 449 kts | 3° |
| 2026-04-20 13:13 | 53.66716 | 72.24385 | 36017 ft | 450 kts | 3° |
| 2026-04-20 13:13 | 53.72880 | 72.26395 | 36023 ft | 452 kts | 4° |
| 2026-04-20 13:14 | 53.79055 | 72.28418 | 36024 ft | 452 kts | 3° |
| 2026-04-20 13:14 | 53.85238 | 72.30440 | 36021 ft | 453 kts | 3° |
| 2026-04-20 13:15 | 53.91424 | 72.32465 | 36017 ft | 453 kts | 3° |
| 2026-04-20 13:15 | 53.97618 | 72.34498 | 36037 ft | 453 kts | 4° |
| 2026-04-20 13:16 | 54.03813 | 72.36538 | 36034 ft | 453 kts | 3° |
| 2026-04-20 13:16 | 54.09965 | 72.38582 | 36012 ft | 449 kts | 5° |
| 2026-04-20 13:16 | 54.12920 | 72.40523 | 36000 ft | 467 kts | 26° |
| 2026-04-20 13:17 | 54.15387 | 72.44220 | 36013 ft | 482 kts | 47° |
| 2026-04-20 13:17 | 54.17204 | 72.49069 | 36032 ft | 489 kts | 60° |
| 2026-04-20 13:17 | 54.18405 | 72.54528 | 36020 ft | 493 kts | 71° |
| 2026-04-20 13:18 | 54.20241 | 72.65827 | 36013 ft | 494 kts | 72° |
| 2026-04-20 13:18 | 54.22060 | 72.77155 | 36013 ft | 495 kts | 72° |
| 2026-04-20 13:19 | 54.23936 | 72.88481 | 36019 ft | 496 kts | 71° |
| 2026-04-20 13:19 | 54.25835 | 72.99825 | 36012 ft | 497 kts | 71° |
| 2026-04-20 13:20 | 54.27731 | 73.11215 | 36014 ft | 498 kts | 71° |
| 2026-04-20 13:20 | 54.29613 | 73.22619 | 36014 ft | 499 kts | 71° |
| 2026-04-20 13:21 | 54.31492 | 73.34086 | 36014 ft | 500 kts | 71° |
| 2026-04-20 13:21 | 54.33359 | 73.45556 | 36012 ft | 500 kts | 72° |
| 2026-04-20 13:22 | 54.35216 | 73.57044 | 36012 ft | 500 kts | 72° |
| 2026-04-20 13:22 | 54.37051 | 73.68466 | 36011 ft | 500 kts | 72° |
| 2026-04-20 13:23 | 54.38887 | 73.79971 | 36031 ft | 500 kts | 72° |
| 2026-04-20 13:23 | 54.40706 | 73.91488 | 36014 ft | 500 kts | 72° |
| 2026-04-20 13:24 | 54.42502 | 74.03002 | 36012 ft | 499 kts | 72° |
| 2026-04-20 13:24 | 54.44287 | 74.14512 | 36013 ft | 498 kts | 72° |
| 2026-04-20 13:25 | 54.46061 | 74.26022 | 36008 ft | 498 kts | 72° |
| 2026-04-20 13:25 | 54.47823 | 74.37525 | 36015 ft | 498 kts | 72° |
| 2026-04-20 13:26 | 54.49575 | 74.49038 | 36010 ft | 497 kts | 72° |
| 2026-04-20 13:26 | 54.51313 | 74.60552 | 36009 ft | 497 kts | 72° |
| 2026-04-20 13:27 | 54.53041 | 74.72078 | 36012 ft | 497 kts | 72° |
| 2026-04-20 13:27 | 54.54757 | 74.83605 | 36021 ft | 497 kts | 72° |
| 2026-04-20 13:28 | 54.56464 | 74.95155 | 36007 ft | 498 kts | 72° |
| 2026-04-20 13:28 | 54.58160 | 75.06718 | 36016 ft | 497 kts | 72° |
| 2026-04-20 13:29 | 54.59846 | 75.18290 | 36016 ft | 498 kts | 72° |
| 2026-04-20 13:29 | 54.61521 | 75.29875 | 36012 ft | 498 kts | 72° |
| 2026-04-20 13:30 | 54.63187 | 75.41487 | 36017 ft | 499 kts | 72° |
| 2026-04-20 13:30 | 54.64845 | 75.53120 | 36015 ft | 499 kts | 72° |
| 2026-04-20 13:31 | 54.66492 | 75.64764 | 36017 ft | 499 kts | 72° |
| 2026-04-20 13:31 | 54.68130 | 75.76423 | 36013 ft | 499 kts | 72° |
| 2026-04-20 13:32 | 54.69759 | 75.88087 | 36033 ft | 499 kts | 72° |
| 2026-04-20 13:32 | 54.71380 | 75.99772 | 36045 ft | 500 kts | 72° |
| 2026-04-20 13:33 | 54.72992 | 76.11485 | 36033 ft | 501 kts | 72° |
| 2026-04-20 13:33 | 54.74592 | 76.23208 | 36025 ft | 501 kts | 73° |
| 2026-04-20 13:34 | 54.76182 | 76.34941 | 36030 ft | 500 kts | 73° |
| 2026-04-20 13:34 | 54.77750 | 76.46610 | 36040 ft | 501 kts | 72° |
| 2026-04-20 13:35 | 54.79317 | 76.58362 | 36028 ft | 501 kts | 73° |
| 2026-04-20 13:35 | 54.80872 | 76.70119 | 36044 ft | 500 kts | 73° |
| 2026-04-20 13:36 | 54.82415 | 76.81875 | 36043 ft | 500 kts | 73° |
| 2026-04-20 13:36 | 54.83946 | 76.93636 | 36048 ft | 500 kts | 73° |
| 2026-04-20 13:37 | 54.85465 | 77.05398 | 36036 ft | 499 kts | 73° |
| 2026-04-20 13:37 | 54.86970 | 77.17154 | 36051 ft | 499 kts | 73° |
| 2026-04-20 13:38 | 54.88463 | 77.28920 | 36046 ft | 499 kts | 73° |
| 2026-04-20 13:38 | 54.89945 | 77.40678 | 36077 ft | 498 kts | 73° |
| 2026-04-20 13:39 | 54.91418 | 77.52464 | 36058 ft | 499 kts | 73° |
| 2026-04-20 13:39 | 54.92857 | 77.64254 | 36052 ft | 500 kts | 76° |
| 2026-04-20 13:40 | 54.93803 | 77.76265 | 36062 ft | 502 kts | 79° |
| 2026-04-20 13:40 | 54.94539 | 77.88347 | 36053 ft | 502 kts | 80° |
| 2026-04-20 13:41 | 54.95298 | 78.00424 | 36064 ft | 502 kts | 79° |
| 2026-04-20 13:41 | 54.96096 | 78.12500 | 36060 ft | 502 kts | 79° |
| 2026-04-20 13:42 | 54.96903 | 78.24611 | 35436 ft | 507 kts | 79° |
| 2026-04-20 13:42 | 54.97698 | 78.36775 | 34257 ft | 506 kts | 79° |
| 2026-04-20 13:42 | 54.98088 | 78.42858 | 33704 ft | 503 kts | 79° |
| 2026-04-20 13:43 | 54.98471 | 78.48881 | 33253 ft | 499 kts | 79° |
| 2026-04-20 13:43 | 54.98847 | 78.54852 | 32805 ft | 494 kts | 80° |
| 2026-04-20 13:43 | 54.99218 | 78.60772 | 32388 ft | 489 kts | 80° |
| 2026-04-20 13:43 | 54.99583 | 78.66644 | 31947 ft | 486 kts | 80° |
| 2026-04-20 13:44 | 54.99943 | 78.72460 | 31540 ft | 481 kts | 80° |
| 2026-04-20 13:44 | 55.00296 | 78.78224 | 31134 ft | 477 kts | 80° |
| 2026-04-20 13:44 | 55.00645 | 78.83948 | 30723 ft | 474 kts | 80° |
| 2026-04-20 13:44 | 55.00989 | 78.89642 | 30319 ft | 470 kts | 80° |
| 2026-04-20 13:45 | 55.01327 | 78.95291 | 29873 ft | 467 kts | 81° |
| 2026-04-20 13:45 | 55.01661 | 79.00899 | 29445 ft | 464 kts | 81° |
| 2026-04-20 13:45 | 55.01989 | 79.06465 | 29000 ft | 460 kts | 81° |
| 2026-04-20 13:45 | 55.02312 | 79.11982 | 28591 ft | 455 kts | 81° |
| 2026-04-20 13:46 | 55.02629 | 79.17455 | 28158 ft | 452 kts | 81° |
| 2026-04-20 13:46 | 55.02942 | 79.22884 | 27759 ft | 448 kts | 81° |
| 2026-04-20 13:46 | 55.03250 | 79.28267 | 27344 ft | 445 kts | 81° |
| 2026-04-20 13:46 | 55.03553 | 79.33616 | 26927 ft | 442 kts | 81° |
| 2026-04-20 13:47 | 55.03848 | 79.38853 | 26535 ft | 438 kts | 82° |
| 2026-04-20 13:47 | 55.04143 | 79.44126 | 26139 ft | 435 kts | 82° |
| 2026-04-20 13:47 | 55.04418 | 79.49086 | 25769 ft | 433 kts | 82° |
| 2026-04-20 13:47 | 55.04705 | 79.54290 | 25382 ft | 430 kts | 82° |
| 2026-04-20 13:48 | 55.04988 | 79.59464 | 25002 ft | 427 kts | 82° |
| 2026-04-20 13:48 | 55.05267 | 79.64612 | 24601 ft | 425 kts | 82° |
| 2026-04-20 13:48 | 55.05542 | 79.69732 | 24210 ft | 423 kts | 82° |
| 2026-04-20 13:48 | 55.05815 | 79.74833 | 23826 ft | 421 kts | 82° |
| 2026-04-20 13:49 | 55.06083 | 79.79909 | 23393 ft | 419 kts | 82° |
| 2026-04-20 13:49 | 55.06347 | 79.84961 | 22948 ft | 417 kts | 82° |
| 2026-04-20 13:49 | 55.06607 | 79.89973 | 22577 ft | 413 kts | 82° |
| 2026-04-20 13:49 | 55.06863 | 79.94948 | 22171 ft | 410 kts | 82° |
| 2026-04-20 13:50 | 55.07116 | 79.99882 | 21791 ft | 407 kts | 83° |
| 2026-04-20 13:50 | 55.07366 | 80.04782 | 21399 ft | 404 kts | 83° |
| 2026-04-20 13:50 | 55.07613 | 80.09649 | 21017 ft | 401 kts | 83° |
| 2026-04-20 13:50 | 55.07857 | 80.14482 | 20649 ft | 399 kts | 82° |
| 2026-04-20 13:51 | 55.08097 | 80.19295 | 20271 ft | 397 kts | 82° |
| 2026-04-20 13:51 | 55.08334 | 80.24080 | 19890 ft | 395 kts | 83° |
| 2026-04-20 13:51 | 55.08568 | 80.28841 | 19521 ft | 393 kts | 83° |
| 2026-04-20 13:51 | 55.08799 | 80.33572 | 19147 ft | 391 kts | 83° |
| 2026-04-20 13:52 | 55.09027 | 80.38287 | 18776 ft | 389 kts | 83° |
| 2026-04-20 13:52 | 55.09252 | 80.42980 | 18406 ft | 387 kts | 83° |
| 2026-04-20 13:52 | 55.09474 | 80.47650 | 17984 ft | 385 kts | 83° |
| 2026-04-20 13:52 | 55.09693 | 80.52297 | 17581 ft | 383 kts | 83° |
| 2026-04-20 13:53 | 55.09910 | 80.56922 | 17209 ft | 380 kts | 83° |
| 2026-04-20 13:53 | 55.10122 | 80.61499 | 16844 ft | 377 kts | 83° |
| 2026-04-20 13:53 | 55.10332 | 80.66051 | 16482 ft | 375 kts | 83° |
| 2026-04-20 13:53 | 55.10539 | 80.70573 | 16113 ft | 373 kts | 83° |
| 2026-04-20 13:54 | 55.10744 | 80.75073 | 15752 ft | 370 kts | 83° |
| 2026-04-20 13:54 | 55.10946 | 80.79543 | 15399 ft | 368 kts | 83° |
| 2026-04-20 13:54 | 55.11145 | 80.83983 | 15044 ft | 366 kts | 84° |
| 2026-04-20 13:54 | 55.11275 | 80.86913 | 14810 ft | 365 kts | 84° |
| 2026-04-20 13:55 | 55.11468 | 80.91321 | 14455 ft | 363 kts | 84° |
| 2026-04-20 13:55 | 55.11459 | 80.95716 | 14090 ft | 363 kts | 97° |
| 2026-04-20 13:55 | 55.10869 | 80.99973 | 13794 ft | 359 kts | 112° |
| 2026-04-20 13:55 | 55.09529 | 81.05203 | 13315 ft | 355 kts | 117° |
| 2026-04-20 13:56 | 55.08474 | 81.09080 | 12954 ft | 353 kts | 117° |
| 2026-04-20 13:56 | 55.07425 | 81.12928 | 12602 ft | 350 kts | 117° |
| 2026-04-20 13:56 | 55.06386 | 81.16763 | 12252 ft | 348 kts | 117° |
| 2026-04-20 13:56 | 55.05691 | 81.19341 | 12019 ft | 347 kts | 117° |
| 2026-04-20 13:57 | 55.04672 | 81.23140 | 11683 ft | 345 kts | 117° |
| 2026-04-20 13:57 | 55.03661 | 81.26919 | 11338 ft | 343 kts | 118° |
| 2026-04-20 13:57 | 55.02656 | 81.30680 | 10991 ft | 341 kts | 118° |
| 2026-04-20 13:57 | 55.01670 | 81.34370 | 10650 ft | 340 kts | 118° |
| 2026-04-20 13:58 | 55.00679 | 81.38073 | 10472 ft | 333 kts | 118° |
| 2026-04-20 13:58 | 54.99712 | 81.41685 | 10319 ft | 325 kts | 118° |
| 2026-04-20 13:58 | 54.98767 | 81.45213 | 10179 ft | 318 kts | 118° |
| 2026-04-20 13:58 | 54.97840 | 81.48664 | 10073 ft | 310 kts | 118° |
| 2026-04-20 13:59 | 54.96932 | 81.52038 | 9708 ft | 311 kts | 119° |
| 2026-04-20 13:59 | 54.96015 | 81.55436 | 9410 ft | 309 kts | 119° |
| 2026-04-20 13:59 | 54.95102 | 81.58819 | 9096 ft | 308 kts | 119° |
| 2026-04-20 13:59 | 54.94190 | 81.62185 | 8806 ft | 307 kts | 119° |
| 2026-04-20 14:00 | 54.93281 | 81.65538 | 8517 ft | 306 kts | 119° |
| 2026-04-20 14:00 | 54.92560 | 81.69015 | 8207 ft | 310 kts | 98° |
| 2026-04-20 14:00 | 54.92552 | 81.72739 | 7983 ft | 307 kts | 89° |
| 2026-04-20 14:00 | 54.92623 | 81.76442 | 7682 ft | 306 kts | 89° |
| 2026-04-20 14:01 | 54.92674 | 81.80141 | 7399 ft | 306 kts | 90° |
| 2026-04-20 14:01 | 54.92718 | 81.83830 | 7124 ft | 304 kts | 89° |
| 2026-04-20 14:01 | 54.92952 | 81.87482 | 6807 ft | 305 kts | 79° |
| 2026-04-20 14:01 | 54.93382 | 81.91092 | 6461 ft | 306 kts | 77° |
| 2026-04-20 14:02 | 54.93849 | 81.94716 | 6078 ft | 307 kts | 77° |
| 2026-04-20 14:02 | 54.94310 | 81.98343 | 5746 ft | 307 kts | 77° |
| 2026-04-20 14:02 | 54.94757 | 82.01966 | 5429 ft | 306 kts | 77° |
| 2026-04-20 14:02 | 54.95191 | 82.05586 | 5110 ft | 305 kts | 77° |
| 2026-04-20 14:03 | 54.95615 | 82.09194 | 4796 ft | 304 kts | 77° |
| 2026-04-20 14:03 | 54.96033 | 82.12787 | 4475 ft | 303 kts | 78° |
| 2026-04-20 14:03 | 54.96447 | 82.16367 | 4168 ft | 301 kts | 78° |
| 2026-04-20 14:03 | 54.96857 | 82.19929 | 3862 ft | 299 kts | 78° |
| 2026-04-20 14:04 | 54.97292 | 82.23460 | 3555 ft | 297 kts | 74° |
| 2026-04-20 14:04 | 54.97833 | 82.26923 | 3251 ft | 296 kts | 76° |
| 2026-04-20 14:04 | 54.98187 | 82.30426 | 2961 ft | 290 kts | 82° |
| 2026-04-20 14:04 | 54.98453 | 82.33818 | 2762 ft | 276 kts | 82° |
| 2026-04-20 14:05 | 54.98736 | 82.37036 | 2576 ft | 263 kts | 83° |
| 2026-04-20 14:05 | 54.99007 | 82.40072 | 2513 ft | 244 kts | 83° |
| 2026-04-20 14:05 | 54.99255 | 82.42864 | 2440 ft | 220 kts | 83° |
| 2026-04-20 14:05 | 54.99472 | 82.45292 | 2317 ft | 195 kts | 84° |
| 2026-04-20 14:06 | 54.99670 | 82.47524 | 2078 ft | 178 kts | 84° |
| 2026-04-20 14:06 | 54.99850 | 82.49539 | 1888 ft | 158 kts | 84° |
| 2026-04-20 14:06 | 55.00013 | 82.51370 | 1652 ft | 149 kts | 84° |
| 2026-04-20 14:06 | 55.00171 | 82.53147 | 1456 ft | 149 kts | 83° |
| 2026-04-20 14:07 | 55.00332 | 82.54940 | 1249 ft | 150 kts | 83° |
| 2026-04-20 14:07 | 55.00498 | 82.56718 | 1051 ft | 147 kts | 80° |
| 2026-04-20 14:07 | 55.00648 | 82.58489 | 828 ft | 147 kts | 82° |
| 2026-04-20 14:07 | 55.00801 | 82.60246 | 661 ft | 148 kts | 81° |
| 2026-04-20 14:08 | 55.00962 | 82.62029 | 473 ft | 149 kts | 81° |
| 2026-04-20 14:08 | 55.01117 | 82.63795 | 374 ft | 146 kts | 80° |
| 2026-04-20 14:08 | 55.01272 | 82.65397 | 372 ft | 120 kts | 81° |
| 2026-04-20 14:08 | 55.01359 | 82.66346 | 373 ft | 30 kts | 81° |
| 2026-04-20 14:09 | 55.01320 | 82.66604 | 372 ft | 21 kts | 161° |
| 2026-04-20 14:09 | 55.01289 | 82.66614 | 372 ft | 0 kts | 172° |
| 2026-04-20 14:09 | 55.01266 | 82.66620 | 372 ft | 8 kts | 172° |
| 2026-04-20 14:09 | 55.01255 | 82.66623 | 372 ft | 0 kts | 172° |
| 2026-04-20 14:10 | 55.01252 | 82.66623 | 372 ft | 4 kts | 172° |
| 2026-04-20 14:10 | 55.01210 | 82.66633 | 372 ft | 7 kts | 172° |
| 2026-04-20 14:10 | 55.01188 | 82.66639 | 372 ft | 0 kts | 171° |
| 2026-04-20 14:11 | 55.01187 | 82.66640 | 372 ft | 1 kts | 171° |
| 2026-04-20 14:11 | 55.01163 | 82.66645 | 372 ft | 5 kts | 172° |
| 2026-04-20 14:11 | 55.01118 | 82.66660 | 372 ft | 7 kts | 160° |
| 2026-04-20 14:11 | 55.01098 | 82.66731 | 372 ft | 7 kts | 88° |
| 2026-04-20 14:12 | 55.01098 | 82.66814 | 372 ft | 7 kts | 93° |
| 2026-04-20 14:12 | 55.01082 | 82.66891 | 372 ft | 7 kts | 113° |
| 2026-04-20 14:12 | 55.01081 | 82.66970 | 372 ft | 7 kts | 84° |
| 2026-04-20 14:12 | 55.01087 | 82.67047 | 372 ft | 6 kts | 81° |
| 2026-04-20 14:13 | 55.01094 | 82.67123 | 372 ft | 6 kts | 81° |
| 2026-04-20 14:13 | 55.01100 | 82.67193 | 372 ft | 2 kts | 95° |
| 2026-04-20 14:13 | 55.01087 | 82.67210 | 372 ft | 2 kts | 155° |
| 2026-04-20 14:13 | 55.01072 | 82.67217 | 372 ft | 2 kts | 167° |
| 2026-04-20 14:14 | 55.01049 | 82.67226 | 372 ft | 2 kts | 168° |
| 2026-04-20 14:14 | 55.01039 | 82.67229 | 372 ft | 1 kts | 170° |
| 2026-04-20 14:14 | 55.01036 | 82.67230 | 372 ft | 0 kts | 168° |